LiveATC.Net - Listen to live air traffic control over the Internet! Contact LiveATC.net for advertising information


ICAO: LDZA  IATA: ZAG   Airport: Zagreb Airport
City: Zagreb
Country: Croatia   Continent: Europe
LDZA METAR Weather: LDZA 252300Z 05003KT 020V120 7000 BKN018 04/02 Q1026 NOSIG
LDZA Flight Activity (FlightAware)
LDZA Twr/Radar/Ops
Feed Status: DOWN
Last heard on: 2014-11-25 21:06:03 (0 days 2 hours 3 minutes ago)
LDZA Twr/Radar/Ops Audio Archives
FacilityFrequency
Zagreb Information135.050
Zagreb Operations131.550
Zagreb Radar120.700
Zagreb Tower118.300


NOTICE

Unauthorized use prohibited. See LiveATC.net Terms of Service


Find LiveATC Audio Streams


Airport/ARTCC Code

Frequency
(e.g., 124.400, 128.75)
Site-wide search

Browse LiveATC Feeds
LiveATC Coverage Map
Top 50 LiveATC Feeds
Bad Weather Areas

LiveATC FAQ
Offer a LiveATC Feed
Contact LiveATC.net
Press Inquiries

LiveATC on iPhone
LiveATC on Android

LiveATC Mobile
(Mobile browser)

ATC Audio Archives
Interesting Recordings

LiveATC Forums


Home Page
About LiveATC.net
Make a Donation
LiveATC Bookstore

Terms of Use
Privacy Policy

ATC/Radar Sites
U.S. ARTCC Freqs
Canadian Air Freqs

AIRMETs/SIGMETs

FAA Airport Status
Nat'l Airspace Status
Arrival Demand Charts


Server Software By:
Icecast.org
Liquidsoap

Please make a donation to help us keep growing!